Terminal Aerodrome Forecast
Issued by NWS Pocatello, ID

Home | Current Version | Previous Version | Text Only | Print | Product List | Glossary On
Versions: 1 2 3 4 5 6 7 8 9 10 11 12 13 14
954
FTUS45 KPIH 300520
TAFPIH
TAF
KPIH 300520Z 3006/3106 21011KT P6SM SKC
     FM301600 25011G20KT P6SM VCTS SCT090 BKN110CB
     FM310200 21011KT P6SM SCT110=

USA.gov is the U.S. government's official web portal to all federal, state and local government web resources and services.